This is the latest recevied weather packets stored in our database for station/object HB9BTL-13. If no packets are shown the sender has not sent any weather packets the latest 10 day(s).
| Time | Temp. | Humidity | Pressure | Rain* | Wind** | Luminosity | Snow |
|---|---|---|---|---|---|---|---|
| 1777927512 | 15° C | 86% | 1014 hPa | - | - | - | - |
| 1777926606 | 15.56° C | 87% | 1013.9 hPa | - | - | - | - |
| 1777925701 | 15° C | 91% | 1014 hPa | - | - | - | - |
| 1777924796 | 15.56° C | 87% | 1013.8 hPa | - | - | - | - |
| 1777923890 | 15° C | 92% | 1013.9 hPa | - | - | - | - |
| 1777922985 | 15.56° C | 92% | 1013.8 hPa | - | - | - | - |
| 1777922079 | 15.56° C | 94% | 1013.7 hPa | - | - | - | - |
| 1777921174 | 15.56° C | 94% | 1013.6 hPa | - | - | - | - |
| 1777920269 | 15.56° C | 93% | 1013.5 hPa | - | - | - | - |
| 1777919364 | 15.56° C | 91% | 1013.7 hPa | - | - | - | - |
| 1777918458 | 16.11° C | 92% | 1013.8 hPa | - | - | - | - |
| 1777917553 | 16.11° C | 93% | 1013.7 hPa | - | - | - | - |
| 1777916648 | 16.11° C | 92% | 1013.9 hPa | - | - | - | - |
| 1777915742 | 16.11° C | 95% | 1013.9 hPa | - | - | - | - |
| 1777914837 | 16.11° C | 96% | 1013.8 hPa | - | - | - | - |
| 1777913931 | 16.11° C | 95% | 1013.9 hPa | - | - | - | - |
| 1777912120 | 16.67° C | 91% | 1014 hPa | - | - | - | - |
| 1777911215 | 16.67° C | 87% | 1013.8 hPa | - | - | - | - |
| 1777910310 | 17.22° C | 80% | 1014 hPa | - | - | - | - |
| 1777909404 | 17.78° C | 80% | 1013.8 hPa | - | - | - | - |
| 1777908499 | 18.89° C | 67% | 1013.6 hPa | - | - | - | - |
| 1777907594 | 20° C | 62% | 1012.9 hPa | - | - | - | - |
| 1777906689 | 20° C | 60% | 1012.7 hPa | - | - | - | - |
| 1777905783 | 20° C | 58% | 1012.5 hPa | - | - | - | - |
| 1777904878 | 20.56° C | 56% | 1012.6 hPa | - | - | - | - |
* Rain since midnight (hover to see other rain measurements)
** Current wind speed in m/s (hover to see current wind gust speed)